Time;durP1;ratioP1;P1;durP2;ratioP2;P2;SDS_P1;SDS_P2;PMS_P1;PMS_P2;Temp;Humidity;BMP_temperature;BMP_pressure;BME280_temperature;BME280_humidity;BME280_pressure;Samples;Min_cycle;Max_cycle;Signal;HPM_P1;HPM_P2
2021/11/29 00:00:47;;;;;;;17.60;14.37;;;;;;;4.11;93.71;99798.97;6190891;28;20232;-62
2021/11/29 00:04:19;;;;;;;15.07;12.73;;;;;;;3.93;95.71;99815.28;6202481;28;20233;-64
2021/11/29 00:07:40;;;;;;;18.43;14.03;;;;;;;3.97;95.45;99806.69;6210990;28;20229;-63
2021/11/29 00:11:01;;;;;;;15.90;13.30;;;;;;;4.05;95.83;99815.31;6211805;28;20229;-62
2021/11/29 00:14:24;;;;;;;17.07;14.33;;;;;;;4.07;95.01;99818.75;6211642;28;20236;-62
2021/11/29 00:17:44;;;;;;;18.07;15.07;;;;;;;3.90;95.76;99830.75;6214483;28;20312;-64
2021/11/29 00:21:06;;;;;;;15.43;12.53;;;;;;;4.14;94.34;99827.34;6212127;28;20225;-64
2021/11/29 00:24:27;;;;;;;17.80;13.63;;;;;;;4.06;93.79;99834.19;6210744;28;20225;-63
2021/11/29 00:27:47;;;;;;;15.47;12.87;;;;;;;3.94;94.31;99827.31;6214867;28;20236;-64
2021/11/29 00:31:10;;;;;;;23.33;14.03;;;;;;;3.72;95.34;99827.25;6211108;28;20233;-62
2021/11/29 00:34:31;;;;;;;16.30;13.67;;;;;;;3.67;97.16;99825.53;6217130;28;20241;-62
2021/11/29 00:37:52;;;;;;;17.13;13.37;;;;;;;3.84;95.52;99829.00;6212887;28;20237;-62
2021/11/29 00:41:14;;;;;;;15.30;13.23;;;;;;;3.84;95.13;99846.16;6213038;28;20589;-64
2021/11/29 00:44:34;;;;;;;15.77;13.27;;;;;;;3.86;94.81;99839.31;6209871;28;20610;-63
2021/11/29 00:47:57;;;;;;;16.83;14.33;;;;;;;3.90;94.90;99841.03;6211474;28;20242;-62
2021/11/29 00:51:18;;;;;;;14.37;12.87;;;;;;;3.90;95.28;99841.03;6209675;28;20225;-62
2021/11/29 00:54:39;;;;;;;17.27;14.13;;;;;;;3.70;94.67;99844.41;6188642;28;20241;-64
2021/11/29 00:58:00;;;;;;;16.13;13.37;;;;;;;3.67;97.13;99844.41;6211111;28;20312;-63
2021/11/29 01:01:21;;;;;;;15.73;12.20;;;;;;;3.48;97.52;99842.63;6210579;28;20234;-63
2021/11/29 01:04:44;;;;;;;14.37;12.27;;;;;;;3.44;98.15;99849.44;6206117;28;20257;-62
2021/11/29 01:08:05;;;;;;;14.77;12.37;;;;;;;3.63;97.02;99842.66;6210446;28;20233;-62
2021/11/29 01:11:26;;;;;;;14.53;11.83;;;;;;;3.54;96.11;99845.19;6212166;28;20252;-64
2021/11/29 01:14:47;;;;;;;13.63;11.63;;;;;;;3.37;97.47;99855.41;6210284;28;20253;-63
2021/11/29 01:18:11;;;;;;;18.97;13.33;;;;;;;3.43;97.57;99850.31;6205141;28;20506;-63
2021/11/29 01:21:33;;;;;;;16.77;12.23;;;;;;;3.24;98.97;99857.09;6210195;28;20237;-62
2021/11/29 01:24:54;;;;;;;13.47;11.47;;;;;;;3.15;99.24;99862.16;6206715;28;20657;-64
2021/11/29 01:28:15;;;;;;;16.90;14.37;;;;;;;3.30;98.71;99872.56;6206017;28;20221;-63
2021/11/29 01:31:36;;;;;;;13.97;10.80;;;;;;;3.33;99.05;99880.31;6209046;28;20316;-62
2021/11/29 01:34:57;;;;;;;15.60;12.13;;;;;;;3.44;98.13;99876.91;6207684;28;20237;-62
2021/11/29 01:38:19;;;;;;;14.50;12.53;;;;;;;3.50;97.91;99879.50;6209419;28;20237;-64
2021/11/29 01:41:43;;;;;;;13.50;12.00;;;;;;;3.55;96.57;99877.84;6205317;28;20245;-62
2021/11/29 01:45:05;;;;;;;14.77;11.80;;;;;;;3.64;96.53;99875.28;6208087;28;20321;-63
2021/11/29 01:48:28;;;;;;;12.33;11.03;;;;;;;3.60;96.62;99880.41;6210338;28;20232;-63
2021/11/29 01:51:48;;;;;;;11.87;10.50;;;;;;;3.62;96.95;99897.59;6204284;28;20244;-63
2021/11/29 01:55:11;;;;;;;13.10;11.70;;;;;;;3.38;98.11;99900.91;6210002;28;20225;-63
2021/11/29 01:58:34;;;;;;;16.97;12.30;;;;;;;3.34;96.95;99907.75;6210558;28;20261;-64
2021/11/29 02:01:55;;;;;;;13.07;11.23;;;;;;;3.03;99.10;99911.84;6209849;28;20237;-63
2021/11/29 02:05:16;;;;;;;11.63;10.43;;;;;;;3.08;98.20;99911.84;6207675;28;20237;-63
2021/11/29 02:08:38;;;;;;;10.13;8.50;;;;;;;3.00;97.66;99916.94;6203214;28;20516;-63
2021/11/29 02:12:00;;;;;;;9.73;8.73;;;;;;;2.84;98.86;99920.25;6210770;28;20257;-63
2021/11/29 02:15:21;;;;;;;9.70;8.70;;;;;;;3.12;96.96;99929.91;6208189;28;20233;-63
2021/11/29 02:18:42;;;;;;;10.90;8.57;;;;;;;2.95;97.70;99929.78;6209883;28;20225;-62
2021/11/29 02:22:05;;;;;;;9.80;7.83;;;;;;;2.62;99.01;99932.94;6210815;28;20328;-64
2021/11/29 02:25:26;;;;;;;8.70;7.80;;;;;;;2.79;97.67;99924.50;6210248;28;20240;-64
2021/11/29 02:28:49;;;;;;;10.90;9.10;;;;;;;2.92;95.88;99924.59;6211964;28;20233;-63
2021/11/29 02:32:10;;;;;;;10.43;9.30;;;;;;;2.81;96.86;99933.09;6209142;28;20237;-62
2021/11/29 02:35:31;;;;;;;10.33;8.97;;;;;;;3.05;96.55;99928.16;6210375;28;20225;-62
2021/11/29 02:38:54;;;;;;;11.27;10.17;;;;;;;2.86;97.39;99929.72;6208164;28;20245;-63
2021/11/29 02:42:15;;;;;;;10.13;9.13;;;;;;;2.97;96.76;99940.09;6208608;28;20616;-63
2021/11/29 02:45:36;;;;;;;7.70;7.00;;;;;;;2.93;96.05;99936.63;6208815;28;20230;-62
2021/11/29 02:48:58;;;;;;;9.93;9.03;;;;;;;2.87;95.94;99930.56;6211179;28;20225;-64
2021/11/29 02:52:20;;;;;;;8.43;7.53;;;;;;;3.10;95.92;99931.63;6209266;28;20228;-63
2021/11/29 02:55:42;;;;;;;8.27;7.43;;;;;;;3.08;94.97;99930.75;6210705;28;20252;-63
2021/11/29 02:59:03;;;;;;;9.03;8.10;;;;;;;3.01;96.05;99935.84;6212768;28;20229;-63
2021/11/29 03:02:24;;;;;;;7.67;6.87;;;;;;;2.75;95.56;99939.91;6205232;28;20598;-63
2021/11/29 03:05:48;;;;;;;8.30;7.40;;;;;;;2.73;96.24;99928.75;6207353;28;20225;-64
2021/11/29 03:09:09;;;;;;;8.63;7.47;;;;;;;2.93;96.28;99930.63;6209379;28;20229;-63
2021/11/29 03:12:31;;;;;;;8.30;7.40;;;;;;;3.00;95.57;99936.66;6202670;28;20256;-64
2021/11/29 03:15:52;;;;;;;8.30;7.50;;;;;;;2.81;97.67;99946.81;6196839;28;20232;-62
2021/11/29 03:19:13;;;;;;;7.60;6.63;;;;;;;2.83;98.24;99951.97;6208689;28;20233;-63
2021/11/29 03:22:34;;;;;;;7.73;6.93;;;;;;;3.05;95.46;99953.00;6206613;28;20221;-62
2021/11/29 03:25:55;;;;;;;10.17;7.20;;;;;;;3.06;95.07;99949.56;6208809;28;20252;-63
2021/11/29 03:29:19;;;;;;;8.73;7.83;;;;;;;3.30;93.67;99959.19;6208829;28;20320;-63
2021/11/29 03:32:39;;;;;;;7.77;6.97;;;;;;;3.26;95.43;99950.59;6206409;28;20249;-63
2021/11/29 03:36:00;;;;;;;7.63;6.83;;;;;;;3.32;94.75;99949.78;6210422;28;20237;-63
2021/11/29 03:39:25;;;;;;;8.33;7.53;;;;;;;3.29;94.70;99960.88;6208842;28;20233;-63
2021/11/29 03:42:45;;;;;;;8.63;7.73;;;;;;;3.36;94.06;99964.38;6207949;28;20233;-63
2021/11/29 03:46:08;;;;;;;7.73;6.93;;;;;;;3.30;95.22;99979.78;6205801;28;20257;-63
2021/11/29 03:49:30;;;;;;;6.93;6.23;;;;;;;3.22;94.08;99978.84;6208251;28;20229;-63
2021/11/29 03:52:51;;;;;;;6.90;6.30;;;;;;;3.32;93.85;99996.97;6209652;28;20233;-63
2021/11/29 03:56:12;;;;;;;6.53;5.93;;;;;;;2.86;94.27;99981.13;6207868;28;20248;-63
2021/11/29 03:59:35;;;;;;;8.20;7.37;;;;;;;3.00;95.55;99993.25;6209319;28;20450;-63
2021/11/29 04:02:57;;;;;;;7.27;6.57;;;;;;;2.99;95.03;99996.69;6205796;28;20229;-63
2021/11/29 04:06:18;;;;;;;6.70;5.97;;;;;;;2.97;94.63;99988.97;6207977;28;20229;-63
2021/11/29 04:09:39;;;;;;;11.67;10.47;;;;;;;3.03;96.21;99994.16;6205789;28;20233;-63
2021/11/29 04:13:00;;;;;;;14.83;13.33;;;;;;;2.93;96.43;99997.50;6208236;28;20233;-63
2021/11/29 04:16:21;;;;;;;8.97;8.10;;;;;;;3.03;94.91;99998.44;6206281;28;20606;-64
2021/11/29 04:19:45;;;;;;;6.90;6.20;;;;;;;2.97;95.55;100014.69;6213704;28;20257;-63
2021/11/29 04:23:06;;;;;;;7.23;6.53;;;;;;;3.07;96.18;100010.47;6212384;28;20233;-63
2021/11/29 04:26:28;;;;;;;6.17;5.50;;;;;;;3.11;94.59;100000.22;6211489;28;20245;-63
2021/11/29 04:29:50;;;;;;;6.17;5.57;;;;;;;2.96;95.51;100016.38;6212013;28;20233;-62
2021/11/29 04:33:11;;;;;;;7.50;6.80;;;;;;;3.14;95.03;100018.28;6211087;28;20338;-63
2021/11/29 04:36:34;;;;;;;6.27;5.67;;;;;;;3.26;93.73;100007.22;6213053;28;20229;-63
2021/11/29 04:39:55;;;;;;;5.77;5.23;;;;;;;3.22;94.68;100014.88;6209065;28;20582;-61
2021/11/29 04:43:17;;;;;;;6.97;6.27;;;;;;;3.26;94.34;100014.94;6212044;28;20796;-63
2021/11/29 04:46:38;;;;;;;6.03;5.53;;;;;;;3.45;93.61;100021.09;6211368;28;20245;-63
2021/11/29 04:49:59;;;;;;;5.87;5.37;;;;;;;3.35;95.01;100025.31;6208307;28;20315;-62
2021/11/29 04:53:21;;;;;;;5.90;5.40;;;;;;;3.17;93.91;100022.56;6211506;28;20253;-63
2021/11/29 04:56:42;;;;;;;5.67;5.13;;;;;;;3.13;94.87;100028.53;6211638;28;20225;-63
2021/11/29 05:00:05;;;;;;;6.37;5.77;;;;;;;3.17;96.67;100035.44;6214897;28;20234;-63
2021/11/29 05:03:26;;;;;;;6.30;5.70;;;;;;;3.29;95.45;100039.81;6210492;28;20226;-62
2021/11/29 05:06:47;;;;;;;6.87;6.17;;;;;;;3.27;95.82;100039.81;6209932;28;20237;-62
2021/11/29 05:10:11;;;;;;;8.00;6.67;;;;;;;3.31;95.70;100056.97;6198481;28;20233;-62
2021/11/29 05:13:33;;;;;;;6.50;5.90;;;;;;;3.28;95.68;100054.41;6202139;28;20234;-62
2021/11/29 05:16:53;;;;;;;7.27;6.57;;;;;;;3.37;95.26;100050.19;6207566;28;20233;-62
2021/11/29 05:20:14;;;;;;;7.00;6.33;;;;;;;3.24;95.79;100055.22;6209361;28;20320;-63
2021/11/29 05:23:35;;;;;;;7.30;6.60;;;;;;;3.27;96.73;100055.25;6212146;28;20221;-62
2021/11/29 05:26:57;;;;;;;7.00;6.30;;;;;;;2.94;98.32;100061.81;6209497;28;20237;-61
2021/11/29 05:30:18;;;;;;;6.77;6.07;;;;;;;3.08;98.08;100064.53;6206523;28;20221;-63
2021/11/29 05:33:39;;;;;;;7.73;6.87;;;;;;;3.05;99.09;100068.78;6209427;28;20230;-63
2021/11/29 05:37:00;;;;;;;8.03;6.87;;;;;;;2.84;99.73;100077.13;6207470;28;20232;-63
2021/11/29 05:40:21;;;;;;;7.23;6.47;;;;;;;2.63;99.65;100085.47;6207480;28;20233;-63
2021/11/29 05:43:46;;;;;;;6.80;6.20;;;;;;;2.72;99.57;100091.59;6210932;28;20225;-62
2021/11/29 05:47:07;;;;;;;7.30;6.60;;;;;;;2.88;98.70;100090.03;6209308;28;20232;-62
2021/11/29 05:50:28;;;;;;;7.40;6.70;;;;;;;3.02;98.59;100094.47;6205907;28;20661;-63
2021/11/29 05:53:49;;;;;;;7.73;7.03;;;;;;;3.29;96.67;100099.88;6210740;28;20229;-63
2021/11/29 05:57:10;;;;;;;7.90;7.10;;;;;;;3.02;96.67;100110.75;6210656;28;20233;-63
2021/11/29 06:00:33;;;;;;;9.60;8.03;;;;;;;2.96;98.82;100105.56;6208717;28;20233;-63
2021/11/29 06:03:54;;;;;;;9.50;8.50;;;;;;;2.80;98.95;100117.38;6210254;28;20217;-62
2021/11/29 06:07:15;;;;;;;9.63;7.67;;;;;;;2.64;100.00;100128.34;6211177;28;20523;-63
2021/11/29 06:10:36;;;;;;;7.53;6.83;;;;;;;2.77;100.00;100127.63;6203239;28;21731;-62
2021/11/29 06:13:57;;;;;;;8.23;7.43;;;;;;;2.91;100.00;100133.81;6209494;28;20222;-63
2021/11/29 06:17:19;;;;;;;10.00;8.07;;;;;;;2.79;100.00;100133.66;6207668;28;20626;-63
2021/11/29 06:20:40;;;;;;;8.57;7.73;;;;;;;2.84;100.00;100137.16;6208319;28;20229;-63
2021/11/29 06:24:01;;;;;;;8.83;7.60;;;;;;;3.14;98.52;100138.31;6210003;28;20236;-64
2021/11/29 06:27:21;;;;;;;8.27;7.47;;;;;;;3.12;98.11;100155.44;6204399;28;21908;-64
2021/11/29 06:30:42;;;;;;;8.53;7.70;;;;;;;3.07;98.68;100154.56;6206689;28;20229;-63
2021/11/29 06:34:05;;;;;;;9.10;8.13;;;;;;;3.19;98.09;100164.13;6204939;28;20229;-63
2021/11/29 06:37:28;;;;;;;10.67;8.30;;;;;;;3.08;98.59;100159.72;6207425;28;20244;-63
2021/11/29 06:40:50;;;;;;;8.70;7.80;;;;;;;3.25;98.10;100169.31;6200762;28;20618;-63
2021/11/29 06:44:11;;;;;;;11.97;8.87;;;;;;;3.09;99.03;100173.44;6193611;28;20241;-64
2021/11/29 06:47:32;;;;;;;9.53;8.53;;;;;;;3.20;99.08;100171.84;6196763;28;20229;-63
2021/11/29 06:50:56;;;;;;;9.73;8.60;;;;;;;3.17;98.24;100173.53;6204798;28;20217;-64
2021/11/29 06:54:17;;;;;;;12.27;9.83;;;;;;;3.37;97.99;100184.88;6205820;28;20229;-63
2021/11/29 06:57:38;;;;;;;11.10;8.93;;;;;;;3.15;99.87;100184.66;6206272;28;20229;-64
2021/11/29 07:01:00;;;;;;;10.93;9.57;;;;;;;3.10;100.00;100198.31;6194631;28;20241;-65
2021/11/29 07:04:20;;;;;;;10.70;8.70;;;;;;;3.18;100.00;100199.28;6198080;28;20229;-63
2021/11/29 07:07:47;;;;;;;11.17;9.97;;;;;;;3.18;100.00;100199.28;6203595;28;20229;-65
2021/11/29 07:11:08;;;;;;;11.00;9.20;;;;;;;3.41;99.16;100209.78;6204190;28;20253;-66
2021/11/29 07:14:29;;;;;;;11.80;9.37;;;;;;;3.49;99.32;100210.75;6206689;28;20229;-63
2021/11/29 07:17:50;;;;;;;13.23;11.57;;;;;;;3.17;99.72;100223.28;6203174;28;20322;-63
2021/11/29 07:21:11;;;;;;;11.07;9.70;;;;;;;3.17;100.00;100219.84;6202861;28;21732;-65
2021/11/29 07:24:34;;;;;;;13.23;10.73;;;;;;;3.04;100.00;100216.25;6210537;28;20255;-65
2021/11/29 07:27:55;;;;;;;11.43;10.20;;;;;;;3.19;100.00;100231.00;6206667;28;20229;-64
2021/11/29 07:31:16;;;;;;;10.47;9.33;;;;;;;3.11;100.00;100236.06;6206838;28;20253;-64
2021/11/29 07:34:37;;;;;;;12.17;10.90;;;;;;;2.85;100.00;100241.75;6211990;28;20225;-63
2021/11/29 07:37:58;;;;;;;11.77;10.20;;;;;;;3.17;100.00;100249.00;6205281;28;20241;-62
2021/11/29 07:41:21;;;;;;;13.07;11.67;;;;;;;3.02;100.00;100251.38;6208710;28;20229;-63
2021/11/29 07:44:42;;;;;;;12.60;10.13;;;;;;;3.07;100.00;100250.59;6200927;28;20237;-63
2021/11/29 07:48:03;;;;;;;11.60;10.03;;;;;;;3.38;100.00;100260.41;6205391;28;20228;-63
2021/11/29 07:51:24;;;;;;;12.27;10.63;;;;;;;3.10;100.00;100254.91;6206651;28;20691;-63
2021/11/29 07:54:46;;;;;;;12.10;10.70;;;;;;;3.34;100.00;100257.78;6212702;28;20221;-63
2021/11/29 07:58:08;;;;;;;16.53;12.70;;;;;;;3.51;100.00;100265.69;6211428;28;20237;-63
2021/11/29 08:01:29;;;;;;;15.13;13.63;;;;;;;3.34;100.00;100273.22;6207138;28;20744;-64
2021/11/29 08:04:53;;;;;;;11.93;10.73;;;;;;;3.29;100.00;100274.88;6207817;28;20534;-65
2021/11/29 08:08:14;;;;;;;12.20;10.83;;;;;;;3.40;100.00;100281.88;6201167;28;21193;-62
2021/11/29 08:11:35;;;;;;;13.60;11.37;;;;;;;3.30;100.00;100275.75;6203671;28;20289;-63
2021/11/29 08:14:58;;;;;;;13.57;11.37;;;;;;;3.47;100.00;100281.97;6200582;28;23022;-62
2021/11/29 08:18:18;;;;;;;14.40;11.67;;;;;;;3.21;100.00;100291.09;6205577;28;20260;-62
2021/11/29 08:21:39;;;;;;;9.43;7.00;;;;;;;5.49;100.00;100304.09;6197664;28;20262;-64
2021/11/29 08:25:01;;;;;;;17.93;14.13;;;;;;;4.82;100.00;100292.56;6199584;28;20237;-62
2021/11/29 08:28:22;;;;;;;15.30;11.80;;;;;;;4.29;99.67;100311.09;6202301;28;20671;-64
2021/11/29 08:31:44;;;;;;;13.30;11.57;;;;;;;3.90;100.00;100317.63;6202270;28;20305;-64
2021/11/29 08:35:06;;;;;;;15.43;12.97;;;;;;;3.42;100.00;100316.22;6206533;28;20237;-64
2021/11/29 08:38:27;;;;;;;17.23;14.47;;;;;;;3.66;100.00;100326.78;6206215;28;20241;-64
2021/11/29 08:41:48;;;;;;;16.87;13.40;;;;;;;3.69;100.00;100325.97;6205233;28;20321;-65
2021/11/29 08:45:10;;;;;;;17.03;13.17;;;;;;;3.73;100.00;100328.59;6204879;28;20225;-63
2021/11/29 08:48:32;;;;;;;15.33;12.40;;;;;;;3.61;100.00;100317.31;6204799;28;20514;-64
2021/11/29 08:51:57;;;;;;;17.47;13.63;;;;;;;3.52;100.00;100323.19;6207031;28;20228;-64
2021/11/29 08:55:18;;;;;;;14.37;11.60;;;;;;;3.31;100.00;100321.22;6205285;28;20618;-64
2021/11/29 08:58:39;;;;;;;12.57;10.40;;;;;;;3.73;100.00;100333.75;6202992;28;20237;-63
2021/11/29 09:01:59;;;;;;;15.67;11.50;;;;;;;3.67;100.00;100343.97;6205193;28;20301;-63
2021/11/29 09:05:22;;;;;;;15.83;12.83;;;;;;;3.74;100.00;100355.19;6202016;28;20229;-63
2021/11/29 09:08:43;;;;;;;14.07;12.13;;;;;;;3.90;100.00;100351.09;6186527;28;20236;-63
2021/11/29 09:12:05;;;;;;;15.27;12.80;;;;;;;3.74;100.00;100358.66;6203923;28;20257;-64
2021/11/29 09:15:26;;;;;;;20.23;15.10;;;;;;;3.80;100.00;100364.72;6195916;28;20324;-64
2021/11/29 09:18:48;;;;;;;17.37;14.57;;;;;;;3.99;100.00;100348.59;6202372;28;20237;-63
2021/11/29 09:22:10;;;;;;;16.87;15.00;;;;;;;4.13;100.00;100352.22;6211870;28;20225;-62
2021/11/29 09:25:30;;;;;;;14.43;12.13;;;;;;;4.10;100.00;100359.91;6204109;28;20622;-65
2021/11/29 09:28:52;;;;;;;18.17;14.27;;;;;;;4.05;100.00;100361.59;6205763;28;20610;-64
2021/11/29 09:32:13;;;;;;;15.83;13.00;;;;;;;3.92;100.00;100375.19;6206752;28;20355;-63
2021/11/29 09:35:35;;;;;;;16.23;13.60;;;;;;;4.20;100.00;100372.88;6204550;28;20221;-64
2021/11/29 09:38:57;;;;;;;17.77;13.37;;;;;;;4.41;100.00;100369.66;6195318;28;20351;-64
2021/11/29 09:42:19;;;;;;;14.00;12.07;;;;;;;4.23;100.00;100376.34;6196794;28;20713;-64
2021/11/29 09:45:44;;;;;;;15.60;12.50;;;;;;;4.51;100.00;100381.75;6200732;28;20249;-64
2021/11/29 09:49:05;;;;;;;15.30;12.83;;;;;;;4.53;100.00;100386.06;6204765;28;20237;-64
2021/11/29 09:52:26;;;;;;;16.50;13.13;;;;;;;4.80;99.82;100389.72;6199847;28;20237;-62
2021/11/29 09:55:49;;;;;;;14.73;12.00;;;;;;;4.69;99.48;100393.94;6202591;28;20225;-63
2021/11/29 09:59:10;;;;;;;16.23;13.37;;;;;;;5.08;98.33;100389.94;6201136;28;20336;-60
2021/11/29 10:02:31;;;;;;;13.40;11.80;;;;;;;5.10;98.74;100394.25;6180154;28;20241;-63
2021/11/29 10:05:53;;;;;;;15.83;12.00;;;;;;;5.04;99.46;100394.22;6206081;28;20233;-62
2021/11/29 10:09:28;;;;;;;15.90;13.53;;;;;;;5.18;98.82;100403.78;6199823;28;20221;-62
2021/11/29 10:12:53;;;;;;;13.73;12.27;;;;;;;5.03;98.26;100396.78;6194271;28;20650;-63
2021/11/29 10:16:15;;;;;;;13.33;11.17;;;;;;;5.13;99.04;100408.91;6197992;28;20241;-63
2021/11/29 10:19:37;;;;;;;12.50;10.57;;;;;;;5.30;97.55;100412.44;6209361;28;20221;-63
2021/11/29 10:23:02;;;;;;;13.13;10.80;;;;;;;5.43;99.06;100407.34;6210095;28;20237;-63
2021/11/29 10:26:25;;;;;;;11.33;10.13;;;;;;;5.49;97.61;100409.97;6203232;28;20233;-64
2021/11/29 10:29:53;;;;;;;12.10;9.77;;;;;;;5.44;97.39;100409.94;6197838;28;20237;-61
2021/11/29 10:33:16;;;;;;;15.47;13.80;;;;;;;5.62;95.80;100404.03;6208222;28;20236;-64
2021/11/29 10:36:40;;;;;;;11.70;10.53;;;;;;;5.77;95.47;100408.38;6209143;28;20232;-64
2021/11/29 10:40:02;;;;;;;13.53;12.13;;;;;;;5.91;93.93;100408.41;6202452;28;20549;-63
2021/11/29 10:43:36;;;;;;;12.17;10.87;;;;;;;5.89;94.21;100412.72;6208488;28;20320;-64
2021/11/29 10:47:02;;;;;;;10.93;9.20;;;;;;;5.78;94.82;100410.13;6207361;28;20513;-63
2021/11/29 10:50:25;;;;;;;9.53;8.40;;;;;;;5.90;95.77;100411.88;6207265;28;20316;-63
2021/11/29 10:53:52;;;;;;;10.80;9.13;;;;;;;5.90;95.26;100417.91;6207611;28;20236;-64
2021/11/29 10:57:14;;;;;;;9.80;8.53;;;;;;;5.60;95.94;100422.94;6197059;28;20244;-63
2021/11/29 11:00:39;;;;;;;9.43;8.47;;;;;;;5.55;97.88;100412.59;6195767;28;20245;-63
2021/11/29 11:04:02;;;;;;;8.60;7.77;;;;;;;5.63;98.67;100415.22;6196398;28;22141;-62
2021/11/29 11:07:25;;;;;;;10.00;9.00;;;;;;;6.07;95.97;100417.16;6201499;28;20213;-62
2021/11/29 11:10:46;;;;;;;8.77;7.97;;;;;;;5.78;96.08;100424.72;6205427;28;20225;-63
2021/11/29 11:14:09;;;;;;;7.40;6.70;;;;;;;5.62;97.86;100435.03;6198388;28;20233;-62
2021/11/29 11:17:32;;;;;;;6.23;5.63;;;;;;;5.72;97.57;100434.19;6184280;28;20233;-62
2021/11/29 11:21:13;;;;;;;7.67;6.50;;;;;;;5.90;96.24;100430.81;6208863;28;20300;-62
2021/11/29 11:24:36;;;;;;;6.13;5.63;;;;;;;5.90;96.29;100429.97;6202392;28;20228;-61
2021/11/29 11:27:59;;;;;;;5.97;5.47;;;;;;;5.95;97.04;100433.44;6213729;28;20225;-62
2021/11/29 11:31:25;;;;;;;5.47;4.97;;;;;;;5.94;96.87;100431.72;6219055;28;20221;-61
2021/11/29 11:34:48;;;;;;;4.83;4.43;;;;;;;6.00;96.37;100441.25;6216804;28;20224;-63
2021/11/29 11:38:13;;;;;;;3.83;3.53;;;;;;;6.48;95.83;100443.09;6177582;28;20233;-62
2021/11/29 11:41:34;;;;;;;4.37;4.00;;;;;;;6.77;92.75;100437.09;6208872;28;20233;-63
2021/11/29 11:44:57;;;;;;;4.70;4.30;;;;;;;7.08;89.93;100434.50;6206415;28;20225;-63
2021/11/29 11:48:19;;;;;;;3.20;2.90;;;;;;;7.00;89.36;100441.38;6209330;28;20224;-63
2021/11/29 11:51:42;;;;;;;5.60;3.47;;;;;;;6.69;90.23;100449.16;6214035;28;20331;-63
2021/11/29 11:55:05;;;;;;;4.23;3.83;;;;;;;7.11;88.60;100439.66;6203783;28;20228;-63
2021/11/29 11:58:31;;;;;;;3.57;3.27;;;;;;;7.04;87.23;100444.00;6208839;28;20794;-63
2021/11/29 12:01:53;;;;;;;3.70;3.40;;;;;;;6.48;89.87;100448.25;6209406;28;20503;-64
2021/11/29 12:05:17;;;;;;;3.93;3.60;;;;;;;6.24;92.81;100456.84;6217068;28;20229;-62
2021/11/29 12:08:45;;;;;;;3.60;3.30;;;;;;;6.26;92.79;100454.22;6217637;28;20493;-62
2021/11/29 12:12:08;;;;;;;3.43;2.90;;;;;;;6.49;91.44;100452.59;6218085;28;20576;-63
2021/11/29 12:15:38;;;;;;;4.57;3.77;;;;;;;8.97;82.84;100450.94;6216841;28;20229;-62
2021/11/29 12:18:59;;;;;;;4.30;3.90;;;;;;;9.90;71.97;100443.94;6219554;28;23289;-62
2021/11/29 12:22:38;;;;;;;4.43;4.00;;;;;;;9.18;71.27;100453.34;6218125;28;20225;-65
2021/11/29 12:25:58;;;;;;;3.60;3.30;;;;;;;10.24;67.64;100451.31;6215647;28;20229;-64
2021/11/29 12:29:53;;;;;;;4.00;3.70;;;;;;;9.23;70.31;100456.78;6217525;28;20612;-63
2021/11/29 12:33:17;;;;;;;4.40;3.50;;;;;;;8.47;74.25;100464.28;6216679;28;20221;-64
2021/11/29 12:37:12;;;;;;;4.53;4.13;;;;;;;8.50;76.95;100462.56;6219269;28;20512;-63
2021/11/29 12:40:47;;;;;;;3.90;3.50;;;;;;;8.98;73.28;100461.34;6213238;28;20257;-63
2021/11/29 12:44:08;;;;;;;5.33;4.93;;;;;;;8.65;73.95;100462.47;6214914;28;20243;-63
2021/11/29 12:47:33;;;;;;;4.77;4.27;;;;;;;8.54;74.90;100467.69;6197925;28;20237;-62
2021/11/29 12:50:56;;;;;;;4.47;4.07;;;;;;;11.93;59.60;100450.28;6211410;28;20225;-62
2021/11/29 12:54:38;;;;;;;4.87;4.43;;;;;;;10.98;61.92;100464.13;6208878;28;20233;-63
2021/11/29 12:58:16;;;;;;;5.13;4.73;;;;;;;12.11;56.50;100468.13;6203513;28;20548;-63
2021/11/29 13:01:39;;;;;;;4.17;3.77;;;;;;;11.96;55.59;100471.06;6209230;28;20232;-63
2021/11/29 13:05:02;;;;;;;4.37;3.97;;;;;;;10.91;60.31;100474.66;6210586;28;20232;-62
2021/11/29 13:08:28;;;;;;;5.53;4.83;;;;;;;10.56;63.39;100476.06;6208737;28;20228;-62
2021/11/29 13:11:49;;;;;;;4.37;3.93;;;;;;;10.98;61.54;100478.91;6210819;28;20225;-64
2021/11/29 13:15:25;;;;;;;5.73;5.23;;;;;;;11.06;62.20;100481.38;6193945;28;20787;-63
2021/11/29 13:18:58;;;;;;;4.67;4.30;;;;;;;9.77;66.54;100489.16;6210486;28;20233;-63
2021/11/29 13:22:25;;;;;;;5.70;5.10;;;;;;;9.23;69.66;100480.16;6213471;28;20543;-63
2021/11/29 13:25:46;;;;;;;6.80;4.93;;;;;;;8.66;74.06;100492.72;6210410;28;20233;-63
2021/11/29 13:29:14;;;;;;;5.30;4.80;;;;;;;8.43;76.43;100496.34;6208221;28;20250;-63
2021/11/29 13:32:37;;;;;;;5.87;5.20;;;;;;;8.27;77.34;100487.69;6189025;28;20601;-63
2021/11/29 13:36:03;;;;;;;5.37;4.97;;;;;;;7.58;81.38;100495.75;6195806;28;20237;-62
2021/11/29 13:39:28;;;;;;;4.73;4.37;;;;;;;7.35;83.21;100494.88;6202117;28;20229;-63
2021/11/29 13:42:52;;;;;;;5.20;4.70;;;;;;;7.00;86.08;100501.81;6202165;28;20229;-63
2021/11/29 13:46:15;;;;;;;5.17;4.77;;;;;;;6.73;86.64;100512.13;6199967;28;20336;-63
2021/11/29 13:49:39;;;;;;;6.03;3.83;;;;;;;6.72;87.29;100511.25;6188843;28;20233;-64
2021/11/29 13:53:01;;;;;;;4.70;4.30;;;;;;;6.54;88.31;100519.84;6194488;28;20252;-63
2021/11/29 13:56:25;;;;;;;4.80;4.40;;;;;;;6.43;90.15;100527.56;6191072;28;20252;-63
2021/11/29 13:59:46;;;;;;;5.13;4.70;;;;;;;6.56;90.25;100537.97;6191022;28;20240;-63
2021/11/29 14:03:12;;;;;;;6.60;5.90;;;;;;;7.00;87.73;100538.06;6198101;28;20232;-64
2021/11/29 14:06:32;;;;;;;4.50;4.10;;;;;;;7.10;87.09;100539.78;6192992;28;20225;-64
2021/11/29 14:09:53;;;;;;;4.00;3.70;;;;;;;7.15;85.95;100537.19;6192467;28;20618;-63
2021/11/29 14:13:18;;;;;;;5.10;4.67;;;;;;;7.05;86.53;100549.28;6195626;28;20229;-64
2021/11/29 14:16:42;;;;;;;4.00;3.60;;;;;;;6.57;88.75;100552.63;6193865;28;20319;-64
2021/11/29 14:20:12;;;;;;;3.00;2.80;;;;;;;6.65;89.03;100567.34;6206969;28;20237;-64
2021/11/29 14:23:41;;;;;;;3.50;3.27;;;;;;;6.43;89.83;100568.09;6209058;28;20228;-63
2021/11/29 14:27:04;;;;;;;4.57;3.60;;;;;;;6.50;90.41;100581.06;6206411;28;20233;-61
2021/11/29 14:30:30;;;;;;;4.60;3.50;;;;;;;6.48;90.87;100589.69;6203130;28;20221;-62
2021/11/29 14:33:51;;;;;;;2.77;2.57;;;;;;;5.96;92.59;100599.75;6205922;28;21892;-62
2021/11/29 14:37:15;;;;;;;3.40;3.10;;;;;;;6.06;92.80;100597.22;6197913;28;20795;-64
2021/11/29 14:40:35;;;;;;;3.63;2.33;;;;;;;6.29;91.72;100607.69;6198811;28;20536;-63
2021/11/29 14:43:58;;;;;;;3.43;3.13;;;;;;;6.12;92.48;100617.09;6202685;28;20528;-63
2021/11/29 14:47:22;;;;;;;2.93;2.67;;;;;;;5.99;92.39;100623.91;6200955;28;20236;-62
2021/11/29 14:50:49;;;;;;;5.10;3.23;;;;;;;6.14;92.36;100630.03;6205725;28;20225;-63
2021/11/29 14:54:10;;;;;;;2.70;2.50;;;;;;;5.68;95.63;100640.84;6206174;28;20317;-62
2021/11/29 14:57:41;;;;;;;2.83;2.63;;;;;;;5.45;97.38;100645.84;6192122;28;20260;-62
2021/11/29 15:01:05;;;;;;;2.73;2.53;;;;;;;5.45;98.27;100656.19;6201586;28;20228;-62
2021/11/29 15:04:31;;;;;;;2.67;2.40;;;;;;;5.55;97.51;100649.38;6199937;28;20233;-63
2021/11/29 15:07:52;;;;;;;2.70;2.50;;;;;;;5.52;97.91;100657.94;6194902;28;20233;-63
2021/11/29 15:11:17;;;;;;;3.70;3.33;;;;;;;5.70;96.82;100665.88;6206634;28;20229;-64
2021/11/29 15:14:38;;;;;;;2.07;1.83;;;;;;;5.31;96.98;100662.06;6206293;28;20229;-64
2021/11/29 15:17:59;;;;;;;2.63;2.43;;;;;;;5.40;97.00;100665.59;6205863;28;20622;-64
2021/11/29 15:21:30;;;;;;;3.37;2.50;;;;;;;5.27;96.74;100660.31;6207648;28;20229;-64
2021/11/29 15:24:55;;;;;;;5.37;4.97;;;;;;;5.48;96.69;100669.09;6207595;28;20236;-63
2021/11/29 15:28:20;;;;;;;2.63;2.43;;;;;;;5.62;95.27;100672.72;6209891;28;20225;-64
2021/11/29 15:31:41;;;;;;;2.73;2.53;;;;;;;5.61;95.27;100665.78;6197324;28;20225;-64
2021/11/29 15:35:11;;;;;;;4.23;2.60;;;;;;;5.39;96.80;100672.50;6198232;28;20237;-64
2021/11/29 15:38:38;;;;;;;3.40;2.80;;;;;;;5.38;98.00;100677.63;6200604;28;20245;-63
2021/11/29 15:41:59;;;;;;;3.23;2.93;;;;;;;5.31;98.12;100681.84;6206773;28;20232;-64
2021/11/29 15:45:20;;;;;;;5.73;3.27;;;;;;;5.45;97.73;100684.59;6188404;28;20225;-64